Time;durP1;ratioP1;P1;durP2;ratioP2;P2;SDS_P1;SDS_P2;PMS_P1;PMS_P2;Temp;Humidity;BMP_temperature;BMP_pressure;BME280_temperature;BME280_humidity;BME280_pressure;Samples;Min_cycle;Max_cycle;Signal;HPM_P1;HPM_P2
2023/02/19 16:39:17;;;;;;;64.25;35.38;;;10.50;99.90;;;;;;5234998;23;20062;-75
2023/02/19 16:41:46;;;;;;;61.78;35.33;;;10.30;99.90;;;;;;4974955;28;20034;-77
2023/02/19 16:44:34;;;;;;;63.40;36.22;;;10.30;99.90;;;;;;4986640;28;20045;-79
2023/02/19 16:47:02;;;;;;;68.50;38.67;;;10.30;99.90;;;;;;4986316;28;20041;-78
2023/02/19 16:49:28;;;;;;;67.25;36.28;;;10.30;99.90;;;;;;4988020;28;20100;-80
2023/02/19 16:51:54;;;;;;;57.85;35.72;;;10.20;99.90;;;;;;4980731;28;20069;-79
2023/02/19 16:54:19;;;;;;;63.95;36.83;;;10.20;99.90;;;;;;4981098;28;20113;-79
2023/02/19 16:56:45;;;;;;;69.70;35.45;;;10.10;99.90;;;;;;4983517;28;20504;-80
2023/02/19 16:59:11;;;;;;;65.50;35.75;;;10.00;99.90;;;;;;4981635;28;20720;-79
2023/02/19 17:01:37;;;;;;;64.43;35.95;;;10.00;99.90;;;;;;4984442;28;20054;-80
2023/02/19 17:04:08;;;;;;;61.92;35.25;;;9.80;99.90;;;;;;4988232;28;20026;-80
2023/02/19 17:06:36;;;;;;;63.40;34.03;;;9.70;99.90;;;;;;4989444;28;20058;-79
2023/02/19 17:09:03;;;;;;;70.63;36.95;;;9.50;99.90;;;;;;4969242;28;20049;-79
2023/02/19 17:11:29;;;;;;;67.15;35.80;;;9.40;99.90;;;;;;4983207;28;20034;-79
2023/02/19 17:13:55;;;;;;;70.90;38.83;;;9.40;99.90;;;;;;4963642;28;20055;-80
2023/02/19 17:16:23;;;;;;;71.10;38.35;;;9.40;99.90;;;;;;4983158;28;20107;-76
2023/02/19 17:18:50;;;;;;;70.25;38.15;;;9.40;99.90;;;;;;4983796;28;20124;-75
2023/02/19 17:21:26;;;;;;;67.90;37.70;;;9.30;99.90;;;;;;4972744;28;20084;-79
2023/02/19 17:23:52;;;;;;;76.15;38.70;;;9.30;99.90;;;;;;4985766;28;20036;-78
2023/02/19 17:26:24;;;;;;;73.40;39.78;;;9.30;99.90;;;;;;4991667;28;20035;-78
2023/02/19 17:28:50;;;;;;;73.22;38.38;;;9.30;99.90;;;;;;4977447;28;20035;-76
2023/02/19 17:31:19;;;;;;;68.45;39.33;;;9.20;99.90;;;;;;4983012;28;20026;-78
2023/02/19 17:33:49;;;;;;;69.93;38.10;;;9.20;99.90;;;;;;4980168;28;20149;-78
2023/02/19 17:36:27;;;;;;;71.90;39.53;;;9.10;99.90;;;;;;4994632;28;20058;-77
2023/02/19 17:39:03;;;;;;;71.10;38.58;;;9.00;99.90;;;;;;4990892;28;20621;-78
2023/02/19 17:41:32;;;;;;;68.60;36.05;;;9.00;99.90;;;;;;4994667;28;20034;-78
2023/02/19 17:43:57;;;;;;;69.10;37.15;;;9.00;99.90;;;;;;4997470;28;20038;-78
2023/02/19 17:46:26;;;;;;;74.20;40.75;;;9.00;99.90;;;;;;4998655;28;20178;-80
2023/02/19 17:48:52;;;;;;;72.15;38.20;;;9.00;99.90;;;;;;4995530;28;20030;-76
2023/02/19 17:51:19;;;;;;;74.82;40.53;;;9.00;99.90;;;;;;4972870;28;20046;-77
2023/02/19 17:53:45;;;;;;;75.50;42.78;;;8.90;99.90;;;;;;4993771;28;20081;-76
2023/02/19 17:56:18;;;;;;;73.28;40.40;;;8.80;99.90;;;;;;4980955;28;20038;-77
2023/02/19 17:58:44;;;;;;;74.25;39.97;;;8.80;99.90;;;;;;4989033;28;20476;-76
2023/02/19 18:01:10;;;;;;;76.63;39.28;;;8.80;99.90;;;;;;4985175;28;20037;-76
2023/02/19 18:03:36;;;;;;;74.57;38.80;;;8.80;99.90;;;;;;4992525;28;20050;-77
2023/02/19 18:06:02;;;;;;;80.78;41.35;;;8.90;99.90;;;;;;4984470;28;20066;-75
2023/02/19 18:08:27;;;;;;;72.35;40.20;;;8.90;99.90;;;;;;4982484;28;20090;-76
2023/02/19 18:10:53;;;;;;;73.57;36.97;;;8.80;99.90;;;;;;4989617;28;20030;-76
2023/02/19 18:13:19;;;;;;;72.95;38.83;;;8.80;99.90;;;;;;4989779;28;20026;-75
2023/02/19 18:15:45;;;;;;;74.55;40.53;;;8.70;99.90;;;;;;4991732;28;20054;-76
2023/02/19 18:18:11;;;;;;;69.05;36.15;;;8.50;99.90;;;;;;4971370;28;20611;-76
2023/02/19 18:20:36;;;;;;;69.07;36.95;;;8.50;99.90;;;;;;4982427;28;20372;-76
2023/02/19 18:23:02;;;;;;;79.55;39.53;;;8.50;99.90;;;;;;4971714;28;20033;-76
2023/02/19 18:25:28;;;;;;;72.07;37.58;;;8.50;99.90;;;;;;4977926;28;20126;-75
2023/02/19 18:27:54;;;;;;;71.38;39.65;;;8.40;99.90;;;;;;4986945;28;20022;-76
2023/02/19 18:30:21;;;;;;;67.57;39.15;;;8.40;99.90;;;;;;4985452;28;20054;-76
2023/02/19 18:32:47;;;;;;;74.30;39.38;;;8.40;99.90;;;;;;4975820;28;20030;-76
2023/02/19 18:35:15;;;;;;;73.13;37.83;;;8.40;99.90;;;;;;4980845;28;20050;-74
2023/02/19 18:37:41;;;;;;;72.30;40.47;;;8.30;99.90;;;;;;4988165;28;20108;-77
2023/02/19 18:40:07;;;;;;;76.72;41.78;;;8.20;99.90;;;;;;4986984;28;20166;-77
2023/02/19 18:42:33;;;;;;;77.32;41.65;;;8.20;99.90;;;;;;4987998;28;20037;-77
2023/02/19 18:44:59;;;;;;;86.55;44.47;;;8.30;99.90;;;;;;5079210;23;20038;-72
2023/02/19 18:47:25;;;;;;;87.32;45.85;;;8.20;99.90;;;;;;4969738;28;20455;-73
2023/02/19 18:49:53;;;;;;;82.07;40.05;;;8.20;99.90;;;;;;5072824;23;20144;-68
2023/02/19 18:52:20;;;;;;;84.20;43.30;;;8.20;99.90;;;;;;4961475;28;20023;-74
2023/02/19 18:54:47;;;;;;;76.53;37.70;;;8.20;99.90;;;;;;4941479;28;20027;-71
2023/02/19 18:57:14;;;;;;;95.43;45.50;;;8.00;99.90;;;;;;4959729;28;20049;-71
2023/02/19 18:59:41;;;;;;;75.95;40.40;;;8.20;99.90;;;;;;4946332;28;20400;-72
2023/02/19 19:02:08;;;;;;;76.47;39.03;;;8.10;99.90;;;;;;4949018;28;20511;-71
2023/02/19 19:04:35;;;;;;;83.80;41.50;;;8.10;99.90;;;;;;4953018;28;20038;-70
2023/02/19 19:07:02;;;;;;;88.63;43.97;;;8.00;99.90;;;;;;4952912;28;20035;-70
2023/02/19 19:09:28;;;;;;;79.10;39.42;;;8.00;99.90;;;;;;4950268;28;20034;-71
2023/02/19 19:11:54;;;;;;;80.70;44.60;;;8.00;99.90;;;;;;4946483;28;20056;-71
2023/02/19 19:14:20;;;;;;;80.13;41.30;;;8.00;99.90;;;;;;4949105;28;20452;-75
2023/02/19 19:16:45;;;;;;;85.60;44.13;;;7.90;99.90;;;;;;4932554;28;20042;-72
2023/02/19 19:19:13;;;;;;;82.07;42.03;;;8.00;99.90;;;;;;4960909;28;20041;-73
2023/02/19 19:21:38;;;;;;;89.95;44.10;;;8.00;99.90;;;;;;4959987;28;20382;-73
2023/02/19 19:24:04;;;;;;;84.72;40.60;;;7.90;99.90;;;;;;4965419;28;20046;-73
2023/02/19 19:26:30;;;;;;;76.68;41.60;;;7.90;99.90;;;;;;4965551;28;20035;-76
2023/02/19 19:28:56;;;;;;;77.15;39.92;;;7.90;99.90;;;;;;4957481;28;20037;-77
2023/02/19 19:31:23;;;;;;;82.18;41.75;;;7.90;99.90;;;;;;4957209;28;20031;-77
2023/02/19 19:33:50;;;;;;;86.47;42.08;;;7.90;99.90;;;;;;4958133;28;20054;-75
2023/02/19 19:36:21;;;;;;;82.72;41.17;;;7.80;99.90;;;;;;4953052;28;20035;-74
2023/02/19 19:38:47;;;;;;;84.78;42.08;;;7.80;99.90;;;;;;4966433;28;20030;-74
2023/02/19 19:41:15;;;;;;;86.25;43.55;;;7.80;99.90;;;;;;4963083;28;20504;-74
2023/02/19 19:43:41;;;;;;;83.15;45.67;;;7.80;99.90;;;;;;4952091;28;20083;-74
2023/02/19 19:46:08;;;;;;;85.65;44.08;;;7.80;99.90;;;;;;4959272;28;20031;-74
2023/02/19 19:48:33;;;;;;;92.55;47.10;;;7.80;99.90;;;;;;4960741;28;20562;-74
2023/02/19 19:50:59;;;;;;;96.50;45.72;;;7.60;99.90;;;;;;4958199;28;20491;-74
2023/02/19 19:53:25;;;;;;;88.25;45.22;;;7.70;99.90;;;;;;4954516;28;20043;-73
2023/02/19 19:55:51;;;;;;;89.43;46.92;;;7.70;99.90;;;;;;4951361;28;20055;-73
2023/02/19 19:58:21;;;;;;;84.82;43.40;;;7.60;99.90;;;;;;4943304;28;20019;-73
2023/02/19 20:00:47;;;;;;;90.63;43.08;;;7.70;99.90;;;;;;4953542;28;20042;-74
2023/02/19 20:03:12;;;;;;;93.38;46.92;;;7.60;99.90;;;;;;4952875;28;20035;-74
2023/02/19 20:05:38;;;;;;;87.95;46.78;;;7.60;99.90;;;;;;4952728;28;20444;-74
2023/02/19 20:08:04;;;;;;;85.38;45.95;;;7.60;99.90;;;;;;4952034;28;20130;-74
2023/02/19 20:10:30;;;;;;;87.68;43.55;;;7.60;99.90;;;;;;4954864;28;20078;-74
2023/02/19 20:12:56;;;;;;;93.93;45.65;;;7.50;99.90;;;;;;4949328;28;20380;-74
2023/02/19 20:15:22;;;;;;;91.25;44.67;;;7.50;99.90;;;;;;4926283;28;20603;-74
2023/02/19 20:17:48;;;;;;;88.25;44.78;;;7.50;99.90;;;;;;4955682;28;20038;-74
2023/02/19 20:20:17;;;;;;;94.13;47.83;;;7.60;99.90;;;;;;4947627;28;20038;-74
2023/02/19 20:22:43;;;;;;;94.35;46.40;;;7.60;99.90;;;;;;4953615;28;20062;-74
2023/02/19 20:25:10;;;;;;;86.47;43.25;;;7.50;99.90;;;;;;4945502;28;20956;-74
2023/02/19 20:27:36;;;;;;;85.43;41.40;;;7.50;99.90;;;;;;4945203;28;20570;-75
2023/02/19 20:30:02;;;;;;;74.60;39.00;;;7.40;99.90;;;;;;4953719;28;20497;-74
2023/02/19 20:32:28;;;;;;;78.13;43.63;;;7.30;99.90;;;;;;4946567;28;20152;-74
2023/02/19 20:34:54;;;;;;;93.32;45.47;;;7.30;99.90;;;;;;4943506;28;20039;-74
2023/02/19 20:37:19;;;;;;;82.82;43.70;;;7.30;99.90;;;;;;4943969;28;20043;-73
2023/02/19 20:39:45;;;;;;;81.05;41.08;;;7.40;99.90;;;;;;4953109;28;20046;-73
2023/02/19 20:42:11;;;;;;;87.90;45.85;;;7.40;99.90;;;;;;4948288;28;20094;-74
2023/02/19 20:44:36;;;;;;;79.93;43.28;;;7.40;99.90;;;;;;4943262;28;20431;-74
2023/02/19 20:47:02;;;;;;;80.53;43.28;;;7.40;99.90;;;;;;4947604;28;20059;-74
2023/02/19 20:49:29;;;;;;;93.45;45.20;;;7.40;99.90;;;;;;4948287;28;20043;-75
2023/02/19 20:51:58;;;;;;;90.15;45.83;;;7.40;99.90;;;;;;4943450;28;20027;-73
2023/02/19 20:54:28;;;;;;;88.28;43.03;;;7.30;99.90;;;;;;4953260;28;20089;-74
2023/02/19 20:56:55;;;;;;;84.75;42.00;;;7.30;99.90;;;;;;4959758;28;20047;-74
2023/02/19 20:59:23;;;;;;;85.22;44.58;;;7.30;99.90;;;;;;4955206;28;20058;-74
2023/02/19 21:01:49;;;;;;;83.03;45.20;;;7.20;99.90;;;;;;4946519;28;20058;-74
2023/02/19 21:04:17;;;;;;;90.72;42.80;;;7.20;99.90;;;;;;4965273;28;20020;-74
2023/02/19 21:06:42;;;;;;;85.78;45.17;;;7.30;99.90;;;;;;4965399;28;20511;-74
2023/02/19 21:09:08;;;;;;;85.07;43.42;;;7.40;99.90;;;;;;4957544;28;20047;-75
2023/02/19 21:11:34;;;;;;;82.45;44.28;;;7.20;99.90;;;;;;4965244;28;20092;-74
2023/02/19 21:14:00;;;;;;;94.60;45.05;;;7.20;99.90;;;;;;4964841;28;20030;-74
2023/02/19 21:16:27;;;;;;;88.18;46.05;;;7.20;99.90;;;;;;4965610;28;20654;-74
2023/02/19 21:18:53;;;;;;;90.40;44.35;;;7.20;99.90;;;;;;4965047;28;20110;-74
2023/02/19 21:21:23;;;;;;;85.97;44.33;;;7.20;99.90;;;;;;4967825;28;20110;-75
2023/02/19 21:23:50;;;;;;;84.25;43.45;;;7.20;99.90;;;;;;4966376;28;20299;-74
2023/02/19 21:26:16;;;;;;;82.05;43.53;;;7.20;99.90;;;;;;4964438;28;20408;-75
2023/02/19 21:28:41;;;;;;;90.20;46.17;;;7.10;99.90;;;;;;4968063;28;20035;-74
2023/02/19 21:31:07;;;;;;;100.53;48.60;;;7.10;99.90;;;;;;4969194;28;20066;-74
2023/02/19 21:33:33;;;;;;;86.53;43.10;;;7.00;99.90;;;;;;4965704;28;20345;-73
2023/02/19 21:36:01;;;;;;;95.82;50.28;;;6.90;99.90;;;;;;4964627;28;20043;-74
2023/02/19 21:38:27;;;;;;;99.70;48.97;;;6.90;99.90;;;;;;4968622;28;20027;-74
2023/02/19 21:40:52;;;;;;;97.35;48.22;;;7.00;99.90;;;;;;4964842;28;20074;-73
2023/02/19 21:43:18;;;;;;;94.57;48.95;;;6.90;99.90;;;;;;4962343;28;20031;-75
2023/02/19 21:45:44;;;;;;;92.50;44.38;;;6.80;99.90;;;;;;4963674;28;20027;-73
2023/02/19 21:48:10;;;;;;;92.38;47.33;;;6.80;99.90;;;;;;4968703;28;20097;-73
2023/02/19 21:50:36;;;;;;;88.43;45.10;;;6.90;99.90;;;;;;4964454;28;20062;-73
2023/02/19 21:53:04;;;;;;;93.75;45.75;;;6.90;99.90;;;;;;4956357;28;20027;-74
2023/02/19 21:55:30;;;;;;;88.28;44.75;;;6.90;99.90;;;;;;4951180;28;20031;-73
2023/02/19 21:57:56;;;;;;;88.78;44.78;;;6.80;99.90;;;;;;4948293;28;26181;-74
2023/02/19 22:00:22;;;;;;;93.55;47.58;;;6.80;99.90;;;;;;4949391;28;20085;-73
2023/02/19 22:02:48;;;;;;;89.65;48.15;;;6.80;99.90;;;;;;4951036;28;20032;-74
2023/02/19 22:05:13;;;;;;;86.75;47.13;;;6.80;99.90;;;;;;4948058;28;20102;-73
2023/02/19 22:07:39;;;;;;;94.10;46.63;;;6.80;99.90;;;;;;4948498;28;20066;-73
2023/02/19 22:10:06;;;;;;;93.75;47.75;;;6.80;99.90;;;;;;4953341;28;20030;-73
2023/02/19 22:12:32;;;;;;;90.40;44.42;;;6.80;99.90;;;;;;4953024;28;20035;-73
2023/02/19 22:14:57;;;;;;;89.93;45.00;;;6.90;99.90;;;;;;4954133;28;20030;-73
2023/02/19 22:17:23;;;;;;;90.63;45.88;;;6.90;99.90;;;;;;4958624;28;20113;-73
2023/02/19 22:19:49;;;;;;;96.28;48.88;;;6.80;99.90;;;;;;4951643;28;20445;-73
2023/02/19 22:22:14;;;;;;;81.35;41.63;;;6.80;99.90;;;;;;4946898;28;20034;-73
2023/02/19 22:24:40;;;;;;;89.85;49.05;;;6.70;99.90;;;;;;4949702;28;20401;-73
2023/02/19 22:27:06;;;;;;;86.10;44.08;;;6.60;99.90;;;;;;4952944;28;20117;-73
2023/02/19 22:29:31;;;;;;;86.55;45.55;;;6.60;99.90;;;;;;4958626;28;20034;-74
2023/02/19 22:31:57;;;;;;;89.35;45.05;;;6.60;99.90;;;;;;4953568;28;20027;-74
2023/02/19 22:34:23;;;;;;;88.75;44.38;;;6.50;99.90;;;;;;4954802;28;20572;-73
2023/02/19 22:36:48;;;;;;;93.47;47.58;;;6.40;99.90;;;;;;4950892;28;20067;-73
2023/02/19 22:39:17;;;;;;;89.45;46.55;;;6.30;99.90;;;;;;4961297;28;20022;-73
2023/02/19 22:41:43;;;;;;;96.18;44.97;;;6.40;99.90;;;;;;4958757;28;20046;-74
2023/02/19 22:44:10;;;;;;;97.97;48.38;;;6.60;99.90;;;;;;4959858;28;20489;-73
2023/02/19 22:46:36;;;;;;;88.10;47.65;;;6.60;99.90;;;;;;4956011;28;20035;-74
2023/02/19 22:49:04;;;;;;;93.57;45.05;;;6.60;99.90;;;;;;4958323;28;20033;-74
2023/02/19 22:51:30;;;;;;;84.13;44.88;;;6.40;99.90;;;;;;4951108;28;20034;-73
2023/02/19 22:53:57;;;;;;;92.78;46.08;;;6.40;99.90;;;;;;4953385;28;20055;-73
2023/02/19 22:56:26;;;;;;;99.68;48.72;;;6.30;99.90;;;;;;4959567;28;20039;-74
2023/02/19 22:58:52;;;;;;;99.50;47.17;;;6.30;99.90;;;;;;4963197;28;20035;-74
2023/02/19 23:01:18;;;;;;;92.15;47.38;;;6.30;99.90;;;;;;4953500;28;20058;-73
2023/02/19 23:03:49;;;;;;;95.28;47.03;;;6.30;99.90;;;;;;4956867;28;20042;-75
2023/02/19 23:06:16;;;;;;;99.57;46.85;;;6.20;99.90;;;;;;4958829;28;20027;-73
2023/02/19 23:08:42;;;;;;;94.95;49.78;;;6.30;99.90;;;;;;4947551;28;20043;-74
2023/02/19 23:11:09;;;;;;;96.15;48.22;;;6.30;99.90;;;;;;4955348;28;20089;-73
2023/02/19 23:13:35;;;;;;;93.70;46.88;;;6.30;99.90;;;;;;4958934;28;20041;-74
2023/02/19 23:16:02;;;;;;;98.05;46.53;;;6.30;99.90;;;;;;4960525;28;20038;-73
2023/02/19 23:18:28;;;;;;;105.70;48.97;;;6.30;99.90;;;;;;4949514;28;20050;-73
2023/02/19 23:20:54;;;;;;;95.38;48.03;;;6.30;99.90;;;;;;4948649;28;20035;-73
2023/02/19 23:23:19;;;;;;;93.82;46.40;;;6.20;99.90;;;;;;4956959;28;20106;-73
2023/02/19 23:25:45;;;;;;;105.43;50.13;;;6.30;99.90;;;;;;4954707;28;20122;-75
2023/02/19 23:28:10;;;;;;;93.22;45.83;;;6.30;99.90;;;;;;4949467;28;20027;-73
2023/02/19 23:30:36;;;;;;;97.85;49.85;;;6.30;99.90;;;;;;4947195;28;20716;-73
2023/02/19 23:33:02;;;;;;;95.88;49.28;;;6.20;99.90;;;;;;4951604;28;20024;-73
2023/02/19 23:35:27;;;;;;;100.00;48.58;;;6.30;99.90;;;;;;4949673;28;20022;-74
2023/02/19 23:37:54;;;;;;;101.38;45.65;;;6.20;99.90;;;;;;4949820;28;20043;-73
2023/02/19 23:40:20;;;;;;;100.55;48.95;;;6.30;99.90;;;;;;4955463;28;20028;-73
2023/02/19 23:42:45;;;;;;;90.85;46.05;;;6.30;99.90;;;;;;4944900;28;20062;-74
2023/02/19 23:45:14;;;;;;;107.93;51.72;;;6.20;99.90;;;;;;4946742;28;20082;-73
2023/02/19 23:47:39;;;;;;;96.97;48.95;;;6.10;99.90;;;;;;4949310;28;20083;-73
2023/02/19 23:50:05;;;;;;;99.43;51.13;;;6.10;99.90;;;;;;4956045;28;20083;-73
2023/02/19 23:52:31;;;;;;;100.47;50.38;;;6.10;99.90;;;;;;4952665;28;20035;-73
2023/02/19 23:54:57;;;;;;;101.72;50.38;;;6.20;99.90;;;;;;4949760;28;20095;-73
2023/02/19 23:57:23;;;;;;;114.60;52.80;;;6.20;99.90;;;;;;4952521;28;20035;-73
2023/02/19 23:59:48;;;;;;;100.97;49.50;;;6.20;99.90;;;;;;4945540;28;22642;-73
